Time,TemperatureF,DewpointF,PressureIn,WindDirection,WindDirectionDegrees,WindSpeedMPH,WindSpeedGustMPH,Humidity,HourlyPrecipIn,Conditions,Clouds,dailyrainin,SolarRadiationWatts/m^2,SoftwareType,DateUTC
2013-05-19 00:00:00,64.8,61.5,30.03,ESE,113,0.0,0.0,89,0.00,,---,0.00,0.00,VWS V14.00,2013-05-19 04:00:00,
2013-05-19 00:01:00,64.8,61.5,30.03,ESE,113,0.0,0.0,89,0.00,,---,0.00,0.00,VWS V14.00,2013-05-19 04:01:00,
2013-05-19 00:06:00,64.7,61.4,30.03,ESE,113,0.0,0.0,89,0.00,,---,0.00,0.00,VWS V14.00,2013-05-19 04:06:00,
2013-05-19 00:11:00,64.7,61.4,30.03,ESE,113,0.0,0.0,89,0.00,,---,0.00,0.00,VWS V14.00,2013-05-19 04:11:00,
2013-05-19 00:16:00,64.6,61.3,30.03,ESE,115,2.0,2.0,89,0.00,,---,0.00,0.00,VWS V14.00,2013-05-19 04:16:00,
2013-05-19 00:21:00,64.6,61.6,30.02,ESE,111,0.0,4.0,90,0.00,,---,0.00,0.00,VWS V14.00,2013-05-19 04:21:00,
2013-05-19 00:26:00,64.7,61.7,30.03,ESE,112,0.0,4.0,90,0.00,,---,0.00,0.00,VWS V14.00,2013-05-19 04:26:00,
2013-05-19 00:30:00,64.9,61.6,30.03,ESE,113,0.0,1.0,89,0.00,,---,0.00,0.00,VWS V14.00,2013-05-19 04:30:00,
2013-05-19 00:31:00,64.8,61.5,30.03,ESE,112,0.0,0.0,89,0.00,,---,0.00,0.00,VWS V14.00,2013-05-19 04:31:00,
2013-05-19 00:36:00,64.6,61.3,30.03,ESE,112,0.0,0.0,89,0.00,,---,0.00,0.00,VWS V14.00,2013-05-19 04:36:00,
2013-05-19 00:41:00,64.5,61.2,30.03,ESE,112,0.0,0.0,89,0.00,,---,0.00,0.00,VWS V14.00,2013-05-19 04:41:00,
2013-05-19 00:46:00,64.4,61.4,30.03,ESE,112,0.0,4.0,90,0.00,,---,0.00,0.00,VWS V14.00,2013-05-19 04:46:00,
2013-05-19 00:51:00,64.4,61.1,30.03,ESE,112,0.0,4.0,89,0.00,,---,0.00,0.00,VWS V14.00,2013-05-19 04:51:00,
2013-05-19 00:56:00,64.4,61.1,30.03,ESE,112,0.0,4.0,89,0.00,,---,0.00,0.00,VWS V14.00,2013-05-19 04:56:00,
2013-05-19 01:00:00,64.8,61.5,30.03,ESE,113,0.0,0.0,89,0.00,,---,0.00,0.00,VWS V14.00,2013-05-19 05:00:00,
2013-05-19 01:01:00,64.5,61.2,30.02,ESE,120,0.0,0.0,89,0.00,,---,0.00,0.00,VWS V14.00,2013-05-19 05:01:00,
2013-05-19 01:06:00,64.5,61.2,30.02,ESE,120,0.0,4.0,89,0.00,,---,0.00,0.00,VWS V14.00,2013-05-19 05:06:00,
2013-05-19 01:11:00,64.4,61.1,30.02,SSE,147,0.0,4.0,89,0.00,,---,0.00,0.00,VWS V14.00,2013-05-19 05:11:00,
2013-05-19 01:16:00,64.4,61.1,30.02,ESE,113,0.0,5.0,89,0.00,,---,0.00,0.00,VWS V14.00,2013-05-19 05:16:00,
2013-05-19 01:21:00,64.4,60.8,30.02,ESE,113,0.0,5.0,88,0.00,,---,0.00,0.00,VWS V14.00,2013-05-19 05:21:00,
2013-05-19 01:27:00,64.4,60.8,30.02,ESE,113,0.0,5.0,88,0.00,,---,0.00,0.00,VWS V14.00,2013-05-19 05:27:00,
2013-05-19 01:30:00,64.7,61.4,30.03,ESE,112,0.0,4.0,89,0.00,,---,0.00,0.00,VWS V14.00,2013-05-19 05:30:00,
2013-05-19 01:32:00,64.3,60.7,30.02,SSE,162,0.0,0.0,88,0.00,,---,0.00,0.00,VWS V14.00,2013-05-19 05:32:00,
2013-05-19 01:37:00,64.2,60.6,30.02,SSE,162,0.0,1.0,88,0.00,,---,0.00,0.00,VWS V14.00,2013-05-19 05:37:00,
2013-05-19 01:42:00,64.1,60.5,30.01,SSE,162,0.0,1.0,88,0.00,,---,0.00,0.00,VWS V14.00,2013-05-19 05:42:00,
2013-05-19 01:47:00,64.0,60.4,30.01,SSE,162,0.0,1.0,88,0.00,,---,0.00,0.00,VWS V14.00,2013-05-19 05:47:00,
2013-05-19 01:52:00,63.8,60.2,30.01,SSE,162,0.0,1.0,88,0.00,,---,0.00,0.00,VWS V14.00,2013-05-19 05:52:00,
2013-05-19 01:57:00,63.5,59.9,30.01,SSE,162,0.0,1.0,88,0.00,,---,0.00,0.00,VWS V14.00,2013-05-19 05:57:00,
2013-05-19 02:00:00,64.4,61.1,30.02,ESE,120,0.0,5.0,89,0.00,,---,0.00,0.00,VWS V14.00,2013-05-19 06:00:00,
2013-05-19 02:02:00,63.3,60.0,30.01,SSE,162,0.0,0.0,89,0.00,,---,0.00,0.00,VWS V14.00,2013-05-19 06:02:00,
2013-05-19 02:07:00,63.2,60.2,30.01,SSE,161,1.0,2.0,90,0.00,,---,0.00,0.00,VWS V14.00,2013-05-19 06:07:00,
2013-05-19 02:12:00,63.2,60.2,30.01,SSE,153,0.0,2.0,90,0.00,,---,0.00,0.00,VWS V14.00,2013-05-19 06:12:00,
2013-05-19 02:17:00,63.1,59.8,30.01,SSE,153,0.0,2.0,89,0.00,,---,0.00,0.00,VWS V14.00,2013-05-19 06:17:00,
2013-05-19 02:22:00,62.9,59.6,30.01,SSE,153,0.0,2.0,89,0.00,,---,0.00,0.00,VWS V14.00,2013-05-19 06:22:00,
2013-05-19 02:27:00,62.7,59.7,30.01,SSE,153,0.0,2.0,90,0.00,,---,0.00,0.00,VWS V14.00,2013-05-19 06:27:00,
2013-05-19 02:30:00,64.3,60.7,30.02,SSE,162,0.0,5.0,88,0.00,,---,0.00,0.00,VWS V14.00,2013-05-19 06:30:00,
2013-05-19 02:32:00,62.6,59.6,30.01,SSE,153,0.0,0.0,90,0.00,,---,0.00,0.00,VWS V14.00,2013-05-19 06:32:00,
2013-05-19 02:37:00,62.5,59.5,30.01,SSE,153,0.0,0.0,90,0.00,,---,0.00,0.00,VWS V14.00,2013-05-19 06:37:00,
2013-05-19 02:42:00,62.3,59.3,30.01,SSE,153,0.0,0.0,90,0.00,,---,0.00,0.00,VWS V14.00,2013-05-19 06:42:00,
2013-05-19 02:47:00,62.2,59.5,30.01,SSE,153,0.0,0.0,91,0.00,,---,0.00,0.00,VWS V14.00,2013-05-19 06:47:00,
2013-05-19 02:52:00,62.0,59.3,30.01,SSE,153,0.0,0.0,91,0.00,,---,0.00,0.00,VWS V14.00,2013-05-19 06:52:00,
2013-05-19 02:57:00,61.9,59.2,30.01,SSE,153,0.0,1.0,91,0.00,,---,0.00,0.00,VWS V14.00,2013-05-19 06:57:00,
2013-05-19 03:00:00,63.3,60.0,30.01,SSE,162,0.0,1.0,89,0.00,,---,0.00,0.00,VWS V14.00,2013-05-19 07:00:00,
2013-05-19 03:02:00,61.8,59.2,30.01,SSE,153,0.0,0.0,91,0.00,,---,0.00,0.00,VWS V14.00,2013-05-19 07:02:00,
2013-05-19 03:07:00,61.7,59.4,30.01,SSE,153,0.0,0.0,92,0.00,,---,0.00,0.00,VWS V14.00,2013-05-19 07:07:00,
2013-05-19 03:12:00,61.6,59.0,30.01,SSE,153,0.0,1.0,91,0.00,,---,0.00,0.00,VWS V14.00,2013-05-19 07:12:00,
2013-05-19 03:17:00,61.5,59.2,30.01,SSE,153,0.0,1.0,92,0.00,,---,0.00,0.00,VWS V14.00,2013-05-19 07:17:00,
2013-05-19 03:22:00,61.3,59.0,30.01,SSE,153,0.0,1.0,92,0.00,,---,0.00,0.00,VWS V14.00,2013-05-19 07:22:00,
2013-05-19 03:27:00,61.2,58.9,30.01,SSE,153,0.0,1.0,92,0.00,,---,0.00,0.00,VWS V14.00,2013-05-19 07:27:00,
2013-05-19 03:30:00,62.6,59.6,30.01,SSE,153,0.0,2.0,90,0.00,,---,0.00,0.00,VWS V14.00,2013-05-19 07:30:00,
2013-05-19 03:32:00,61.1,58.8,30.01,SSE,153,0.0,0.0,92,0.00,,---,0.00,0.00,VWS V14.00,2013-05-19 07:32:00,
2013-05-19 03:37:00,60.9,58.6,30.01,SSE,153,0.0,0.0,92,0.00,,---,0.00,0.00,VWS V14.00,2013-05-19 07:37:00,
2013-05-19 03:42:00,60.8,58.8,30.01,SSE,153,0.0,0.0,93,0.00,,---,0.00,0.00,VWS V14.00,2013-05-19 07:42:00,
2013-05-19 03:47:00,60.7,58.7,30.00,SSE,153,0.0,0.0,93,0.00,,---,0.00,0.00,VWS V14.00,2013-05-19 07:47:00,
2013-05-19 03:52:00,60.5,58.5,30.01,SSE,153,0.0,0.0,93,0.00,,---,0.00,0.00,VWS V14.00,2013-05-19 07:52:00,
2013-05-19 03:57:00,60.4,58.4,30.01,SSE,153,0.0,0.0,93,0.00,,---,0.00,0.00,VWS V14.00,2013-05-19 07:57:00,
2013-05-19 04:00:00,61.8,59.2,30.01,SSE,153,0.0,1.0,91,0.00,,---,0.00,0.00,VWS V14.00,2013-05-19 08:00:00,
2013-05-19 04:03:00,60.2,58.2,30.01,SSE,153,0.0,0.0,93,0.00,,---,0.00,0.00,VWS V14.00,2013-05-19 08:03:00,
2013-05-19 04:08:00,60.2,58.5,30.01,SSE,153,0.0,0.0,94,0.00,,---,0.00,0.00,VWS V14.00,2013-05-19 08:08:00,
2013-05-19 04:13:00,60.2,58.5,30.01,SSE,153,0.0,1.0,94,0.00,,---,0.00,0.00,VWS V14.00,2013-05-19 08:13:00,
2013-05-19 04:18:00,60.1,58.4,30.01,SE,140,0.0,1.0,94,0.00,,---,0.00,0.00,VWS V14.00,2013-05-19 08:18:00,
2013-05-19 04:23:00,60.0,58.3,30.01,ESE,105,0.0,4.0,94,0.00,,---,0.00,0.00,VWS V14.00,2013-05-19 08:23:00,
2013-05-19 04:28:00,60.0,58.3,30.01,ESE,105,0.0,4.0,94,0.00,,---,0.00,0.00,VWS V14.00,2013-05-19 08:28:00,
2013-05-19 04:30:00,61.1,58.8,30.01,SSE,153,0.0,1.0,92,0.00,,---,0.00,0.00,VWS V14.00,2013-05-19 08:30:00,
2013-05-19 04:33:00,59.8,57.8,30.01,ESE,105,0.0,0.0,93,0.00,,---,0.00,0.00,VWS V14.00,2013-05-19 08:33:00,
2013-05-19 04:38:00,59.6,57.6,30.01,ESE,105,0.0,0.0,93,0.00,,---,0.00,0.00,VWS V14.00,2013-05-19 08:38:00,
2013-05-19 04:43:00,59.5,57.8,30.01,ESE,105,0.0,0.0,94,0.00,,---,0.00,0.00,VWS V14.00,2013-05-19 08:43:00,
2013-05-19 04:48:00,59.5,58.1,30.00,ESE,105,0.0,0.0,95,0.00,,---,0.00,0.00,VWS V14.00,2013-05-19 08:48:00,
2013-05-19 04:53:00,59.3,57.6,30.01,ESE,105,0.0,0.0,94,0.00,,---,0.00,0.00,VWS V14.00,2013-05-19 08:53:00,
2013-05-19 04:58:00,59.1,57.4,30.00,ESE,105,0.0,0.0,94,0.00,,---,0.00,0.00,VWS V14.00,2013-05-19 08:58:00,
2013-05-19 05:00:00,60.3,58.3,30.01,SSE,153,0.0,0.0,93,0.00,,---,0.00,0.00,VWS V14.00,2013-05-19 09:00:00,
2013-05-19 05:03:00,58.9,57.2,30.01,ESE,105,0.0,0.0,94,0.00,,---,0.00,0.00,VWS V14.00,2013-05-19 09:03:00,
2013-05-19 05:08:00,58.9,57.2,30.01,ESE,105,0.0,0.0,94,0.00,,---,0.00,0.00,VWS V14.00,2013-05-19 09:08:00,
2013-05-19 05:13:00,58.7,57.0,30.01,ESE,105,0.0,0.0,94,0.00,,---,0.00,0.00,VWS V14.00,2013-05-19 09:13:00,
2013-05-19 05:18:00,58.6,57.2,30.00,ESE,105,0.0,0.0,95,0.00,,---,0.00,0.00,VWS V14.00,2013-05-19 09:18:00,
2013-05-19 05:23:00,58.5,57.1,30.01,ESE,105,0.0,0.0,95,0.00,,---,0.00,0.00,VWS V14.00,2013-05-19 09:23:00,
2013-05-19 05:28:00,58.4,57.0,30.01,ESE,105,0.0,0.0,95,0.00,,---,0.00,0.00,VWS V14.00,2013-05-19 09:28:00,
2013-05-19 05:30:00,59.9,58.2,30.01,ESE,105,0.0,4.0,94,0.00,,---,0.00,0.00,VWS V14.00,2013-05-19 09:30:00,
2013-05-19 05:33:00,58.2,56.8,30.00,ESE,105,0.0,0.0,95,0.00,,---,0.00,0.00,VWS V14.00,2013-05-19 09:33:00,
2013-05-19 05:38:00,58.1,56.7,30.01,ESE,105,0.0,0.0,95,0.00,,---,0.00,0.00,VWS V14.00,2013-05-19 09:38:00,
2013-05-19 05:43:00,58.0,56.6,30.01,ESE,105,0.0,0.0,95,0.00,,---,0.00,0.00,VWS V14.00,2013-05-19 09:43:00,
2013-05-19 05:49:00,58.0,56.6,30.01,ESE,105,0.0,0.0,95,0.00,,---,0.00,0.00,VWS V14.00,2013-05-19 09:49:00,
2013-05-19 05:54:00,57.8,56.7,30.02,ESE,105,0.0,1.0,96,0.00,,---,0.00,0.00,VWS V14.00,2013-05-19 09:54:00,
2013-05-19 05:59:00,57.8,56.7,30.02,ESE,105,0.0,1.0,96,0.00,,---,0.00,0.00,VWS V14.00,2013-05-19 09:59:00,
2013-05-19 06:00:00,59.0,57.3,30.00,ESE,105,0.0,0.0,94,0.00,,---,0.00,0.00,VWS V14.00,2013-05-19 10:00:00,
2013-05-19 06:04:00,57.6,56.2,30.03,ESE,105,0.0,0.0,95,0.00,,---,0.00,0.00,VWS V14.00,2013-05-19 10:04:00,
2013-05-19 06:09:00,57.4,56.0,30.03,ESE,105,0.0,0.0,95,0.00,,---,0.00,7.00,VWS V14.00,2013-05-19 10:09:00,
2013-05-19 06:13:00,57.4,56.3,30.03,ESE,105,0.0,0.0,96,0.00,,---,0.00,9.00,VWS V14.00,2013-05-19 10:13:00,
2013-05-19 06:19:00,57.5,56.4,30.03,ESE,105,1.0,2.0,96,0.00,,---,0.00,12.00,VWS V14.00,2013-05-19 10:19:00,
2013-05-19 06:24:00,57.3,56.2,30.03,ESE,105,0.0,2.0,96,0.00,,---,0.00,14.00,VWS V14.00,2013-05-19 10:24:00,
2013-05-19 06:29:00,57.2,56.1,30.03,ESE,105,0.0,2.0,96,0.00,,---,0.00,18.00,VWS V14.00,2013-05-19 10:29:00,
2013-05-19 06:30:00,58.3,56.9,30.01,ESE,105,0.0,0.0,95,0.00,,---,0.00,0.00,VWS V14.00,2013-05-19 10:30:00,
2013-05-19 06:34:00,57.5,56.7,30.04,ESE,105,0.0,0.0,97,0.00,,---,0.00,21.00,VWS V14.00,2013-05-19 10:34:00,
2013-05-19 06:39:00,57.5,56.7,30.04,ESE,105,0.0,0.0,97,0.00,,---,0.00,26.00,VWS V14.00,2013-05-19 10:39:00,
2013-05-19 06:44:00,57.4,56.3,30.04,ESE,105,0.0,0.0,96,0.00,,---,0.00,32.00,VWS V14.00,2013-05-19 10:44:00,
2013-05-19 06:49:00,57.3,56.2,30.04,ESE,105,0.0,0.0,96,0.00,,---,0.00,33.00,VWS V14.00,2013-05-19 10:49:00,
2013-05-19 06:54:00,57.3,56.2,30.04,ESE,105,0.0,0.0,96,0.00,,---,0.00,42.00,VWS V14.00,2013-05-19 10:54:00,
2013-05-19 06:59:00,57.5,56.7,30.04,ESE,105,0.0,0.0,97,0.00,,---,0.00,58.00,VWS V14.00,2013-05-19 10:59:00,
2013-05-19 07:00:00,57.7,56.3,30.02,ESE,105,0.0,1.0,95,0.00,,---,0.00,0.00,VWS V14.00,2013-05-19 11:00:00,
2013-05-19 07:04:00,57.8,57.0,30.04,ESE,105,0.0,0.0,97,0.00,,---,0.00,56.00,VWS V14.00,2013-05-19 11:04:00,
2013-05-19 07:09:00,58.0,57.2,30.04,ESE,105,0.0,0.0,97,0.00,,---,0.00,56.00,VWS V14.00,2013-05-19 11:09:00,
2013-05-19 07:14:00,58.0,57.2,30.04,ESE,105,0.0,0.0,97,0.00,,---,0.00,60.00,VWS V14.00,2013-05-19 11:14:00,
2013-05-19 07:19:00,58.1,57.3,30.05,ESE,105,0.0,0.0,97,0.00,,---,0.00,60.00,VWS V14.00,2013-05-19 11:19:00,
2013-05-19 07:24:00,58.4,57.8,30.04,ESE,105,0.0,0.0,98,0.00,,---,0.00,53.00,VWS V14.00,2013-05-19 11:24:00,
2013-05-19 07:29:00,58.6,57.8,30.05,ESE,105,0.0,0.0,97,0.00,,---,0.00,47.00,VWS V14.00,2013-05-19 11:29:00,
2013-05-19 07:30:00,57.4,56.6,30.03,ESE,105,0.0,2.0,97,0.00,,---,0.00,19.00,VWS V14.00,2013-05-19 11:30:00,
2013-05-19 07:34:00,58.8,58.0,30.05,ESE,105,0.0,0.0,97,0.00,,---,0.00,46.00,VWS V14.00,2013-05-19 11:34:00,
2013-05-19 07:39:00,58.9,58.0,30.05,ESE,105,0.0,0.0,97,0.00,,---,0.00,46.00,VWS V14.00,2013-05-19 11:39:00,
2013-05-19 07:44:00,58.9,58.0,30.05,ESE,105,0.0,0.0,97,0.00,,---,0.00,42.00,VWS V14.00,2013-05-19 11:44:00,
2013-05-19 07:49:00,59.0,58.2,30.05,ESE,105,0.0,0.0,97,0.00,,---,0.00,49.00,VWS V14.00,2013-05-19 11:49:00,
2013-05-19 07:54:00,59.0,58.2,30.05,ESE,105,0.0,0.0,97,0.00,,---,0.00,65.00,VWS V14.00,2013-05-19 11:54:00,
2013-05-19 07:59:00,59.2,58.3,30.05,ESE,105,0.0,0.0,97,0.00,,---,0.00,128.00,VWS V14.00,2013-05-19 11:59:00,
2013-05-19 08:00:00,57.6,56.8,30.04,ESE,105,0.0,0.0,97,0.00,,---,0.00,56.00,VWS V14.00,2013-05-19 12:00:00,
2013-05-19 08:04:00,59.4,58.5,30.05,ESE,105,0.0,0.0,97,0.00,,---,0.00,139.00,VWS V14.00,2013-05-19 12:04:00,
2013-05-19 08:09:00,59.7,58.8,30.05,ESE,105,0.0,0.0,97,0.00,,---,0.00,160.00,VWS V14.00,2013-05-19 12:09:00,
2013-05-19 08:14:00,60.0,59.2,30.05,ESE,105,0.0,0.0,97,0.00,,---,0.00,183.00,VWS V14.00,2013-05-19 12:14:00,
2013-05-19 08:19:00,60.4,59.5,30.05,ESE,105,0.0,0.0,97,0.00,,---,0.00,172.00,VWS V14.00,2013-05-19 12:19:00,
2013-05-19 08:24:00,60.8,60.0,30.05,ESE,105,0.0,0.0,97,0.00,,---,0.00,178.00,VWS V14.00,2013-05-19 12:24:00,
2013-05-19 08:29:00,61.3,60.4,30.05,ESE,105,0.0,0.0,97,0.00,,---,0.00,206.00,VWS V14.00,2013-05-19 12:29:00,
2013-05-19 08:30:00,58.7,57.8,30.05,ESE,105,0.0,0.0,97,0.00,,---,0.00,47.00,VWS V14.00,2013-05-19 12:30:00,
2013-05-19 08:34:00,61.7,60.8,30.05,ESE,105,0.0,0.0,97,0.00,,---,0.00,190.00,VWS V14.00,2013-05-19 12:34:00,
2013-05-19 08:39:00,62.2,61.0,30.05,ESE,105,0.0,1.0,96,0.00,,---,0.00,197.00,VWS V14.00,2013-05-19 12:39:00,
2013-05-19 08:44:00,62.7,61.5,30.05,ESE,105,0.0,1.0,96,0.00,,---,0.00,185.00,VWS V14.00,2013-05-19 12:44:00,
2013-05-19 08:49:00,63.1,61.7,30.05,ESE,105,0.0,1.0,95,0.00,,---,0.00,276.00,VWS V14.00,2013-05-19 12:49:00,
2013-05-19 08:54:00,63.6,61.5,30.05,ESE,105,0.0,1.0,93,0.00,,---,0.00,290.00,VWS V14.00,2013-05-19 12:54:00,
2013-05-19 08:59:00,64.2,61.8,30.05,ESE,105,0.0,1.0,92,0.00,,---,0.00,257.00,VWS V14.00,2013-05-19 12:59:00,
2013-05-19 09:00:00,59.3,58.5,30.05,ESE,105,0.0,0.0,97,0.00,,---,0.00,151.00,VWS V14.00,2013-05-19 13:00:00,
2013-05-19 09:04:00,64.6,61.9,30.05,ESE,105,0.0,1.0,91,0.00,,---,0.00,264.00,VWS V14.00,2013-05-19 13:04:00,
2013-05-19 09:09:00,65.0,61.7,30.05,SSE,154,0.0,4.0,89,0.00,,---,0.00,264.00,VWS V14.00,2013-05-19 13:09:00,
2013-05-19 09:14:00,65.3,61.7,30.05,SSE,148,0.0,4.0,88,0.00,,---,0.00,234.00,VWS V14.00,2013-05-19 13:14:00,
2013-05-19 09:19:00,65.6,62.0,30.05,ENE,73,0.0,4.0,88,0.00,,---,0.00,227.00,VWS V14.00,2013-05-19 13:19:00,
2013-05-19 09:24:00,65.9,62.2,30.05,ENE,73,0.0,4.0,88,0.00,,---,0.00,248.00,VWS V14.00,2013-05-19 13:24:00,
2013-05-19 09:29:00,66.2,62.2,30.05,East,101,1.0,4.0,87,0.00,,---,0.00,262.00,VWS V14.00,2013-05-19 13:29:00,
2013-05-19 09:30:00,61.5,60.6,30.05,ESE,105,0.0,0.0,97,0.00,,---,0.00,200.00,VWS V14.00,2013-05-19 13:30:00,
2013-05-19 09:34:00,66.4,62.1,30.05,ESE,102,2.0,2.0,86,0.00,,---,0.00,264.00,VWS V14.00,2013-05-19 13:34:00,
2013-05-19 09:39:00,66.6,62.3,30.05,ESE,102,0.0,2.0,86,0.00,,---,0.00,257.00,VWS V14.00,2013-05-19 13:39:00,
2013-05-19 09:44:00,66.8,62.8,30.05,East,101,1.0,4.0,87,0.00,,---,0.00,244.00,VWS V14.00,2013-05-19 13:44:00,
2013-05-19 09:49:00,67.0,62.7,30.05,East,101,0.0,4.0,86,0.00,,---,0.00,237.00,VWS V14.00,2013-05-19 13:49:00,
2013-05-19 09:54:00,67.3,63.3,30.05,ESE,103,0.0,4.0,87,0.00,,---,0.00,243.00,VWS V14.00,2013-05-19 13:54:00,
2013-05-19 09:59:00,67.5,62.8,30.05,ESE,103,0.0,4.0,85,0.00,,---,0.00,244.00,VWS V14.00,2013-05-19 13:59:00,
2013-05-19 10:00:00,64.4,62.0,30.05,ESE,105,0.0,4.0,92,0.00,,---,0.00,244.00,VWS V14.00,2013-05-19 14:00:00,
2013-05-19 10:04:00,67.6,62.6,30.05,ESE,103,0.0,1.0,84,0.00,,---,0.00,243.00,VWS V14.00,2013-05-19 14:04:00,
2013-05-19 10:09:00,67.7,63.0,30.05,ESE,104,0.0,1.0,85,0.00,,---,0.00,255.00,VWS V14.00,2013-05-19 14:09:00,
2013-05-19 10:14:00,68.0,63.3,30.05,ESE,104,0.0,2.0,85,0.00,,---,0.00,253.00,VWS V14.00,2013-05-19 14:14:00,
2013-05-19 10:19:00,68.2,62.8,30.05,ESE,119,0.0,4.0,83,0.00,,---,0.00,274.00,VWS V14.00,2013-05-19 14:19:00,
2013-05-19 10:24:00,68.4,63.4,30.04,ESE,119,0.0,4.0,84,0.00,,---,0.00,320.00,VWS V14.00,2013-05-19 14:24:00,
2013-05-19 10:29:00,68.6,62.5,30.05,ESE,121,0.0,4.0,81,0.00,,---,0.00,294.00,VWS V14.00,2013-05-19 14:29:00,
2013-05-19 10:30:00,66.3,62.0,30.05,East,101,0.0,4.0,86,0.00,,---,0.00,271.00,VWS V14.00,2013-05-19 14:30:00,
2013-05-19 10:34:00,68.8,62.7,30.04,ESE,121,0.0,2.0,81,0.00,,---,0.00,248.00,VWS V14.00,2013-05-19 14:34:00,
2013-05-19 10:39:00,68.9,62.8,30.04,SE,142,0.0,5.0,81,0.00,,---,0.00,257.00,VWS V14.00,2013-05-19 14:39:00,
2013-05-19 10:44:00,69.0,63.6,30.04,SE,140,0.0,5.0,83,0.00,,---,0.00,322.00,VWS V14.00,2013-05-19 14:44:00,
2013-05-19 10:49:00,69.2,63.5,30.04,ESE,111,0.0,5.0,82,0.00,,---,0.00,485.00,VWS V14.00,2013-05-19 14:49:00,
2013-05-19 10:54:00,69.5,63.4,30.04,South,172,1.0,6.0,81,0.00,,---,0.00,461.00,VWS V14.00,2013-05-19 14:54:00,
2013-05-19 10:59:00,69.8,63.7,30.04,ESE,112,8.0,8.0,81,0.00,,---,0.00,476.00,VWS V14.00,2013-05-19 14:59:00,
2013-05-19 11:00:00,67.6,62.9,30.05,ESE,103,0.0,4.0,85,0.00,,---,0.00,237.00,VWS V14.00,2013-05-19 15:00:00,
2013-05-19 11:04:00,70.0,63.9,30.04,South,170,4.0,6.0,81,0.00,,---,0.00,512.00,VWS V14.00,2013-05-19 15:04:00,
2013-05-19 11:09:00,70.3,63.8,30.04,SSE,149,4.0,6.0,80,0.00,,---,0.00,490.00,VWS V14.00,2013-05-19 15:09:00,
2013-05-19 11:14:00,70.6,64.1,30.03,East,90,4.0,6.0,80,0.00,,---,0.00,497.00,VWS V14.00,2013-05-19 15:14:00,
2013-05-19 11:19:00,70.8,63.6,30.03,South,182,4.0,6.0,78,0.00,,---,0.00,520.00,VWS V14.00,2013-05-19 15:19:00,
2013-05-19 11:24:00,71.0,64.2,30.03,SE,127,7.0,8.0,79,0.00,,---,0.00,448.00,VWS V14.00,2013-05-19 15:24:00,
2013-05-19 11:29:00,71.2,64.0,30.03,ESE,108,2.0,8.0,78,0.00,,---,0.00,374.00,VWS V14.00,2013-05-19 15:29:00,
2013-05-19 11:30:00,68.7,63.3,30.04,ESE,121,0.0,4.0,83,0.00,,---,0.00,264.00,VWS V14.00,2013-05-19 15:30:00,
2013-05-19 11:34:00,71.3,64.5,30.03,ESE,109,0.0,1.0,79,0.00,,---,0.00,322.00,VWS V14.00,2013-05-19 15:34:00,
2013-05-19 11:39:00,71.5,64.3,30.03,South,181,0.0,4.0,78,0.00,,---,0.00,374.00,VWS V14.00,2013-05-19 15:39:00,
2013-05-19 11:44:00,71.8,64.6,30.03,West,278,1.0,8.0,78,0.00,,---,0.00,403.00,VWS V14.00,2013-05-19 15:44:00,
2013-05-19 11:49:00,71.8,63.8,30.03,South,182,5.0,8.0,76,0.00,,---,0.00,471.00,VWS V14.00,2013-05-19 15:49:00,
2013-05-19 11:54:00,71.7,63.7,30.03,SE,125,4.0,8.0,76,0.00,,---,0.00,476.00,VWS V14.00,2013-05-19 15:54:00,
2013-05-19 11:59:00,71.8,64.6,30.03,SW,225,2.0,8.0,78,0.00,,---,0.00,399.00,VWS V14.00,2013-05-19 15:59:00,
2013-05-19 12:00:00,69.8,63.4,30.04,SE,128,0.0,9.0,80,0.00,,---,0.00,573.00,VWS V14.00,2013-05-19 16:00:00,
2013-05-19 12:04:00,71.9,64.3,30.03,SSE,153,0.0,5.0,77,0.00,,---,0.00,290.00,VWS V14.00,2013-05-19 16:04:00,
2013-05-19 12:09:00,71.9,63.9,30.03,ESE,107,4.0,7.0,76,0.00,,---,0.00,264.00,VWS V14.00,2013-05-19 16:09:00,
2013-05-19 12:14:00,71.9,65.0,30.03,ENE,76,0.0,7.0,79,0.00,,---,0.00,323.00,VWS V14.00,2013-05-19 16:14:00,
2013-05-19 12:19:00,72.2,64.2,30.03,ENE,76,0.0,7.0,76,0.00,,---,0.00,445.00,VWS V14.00,2013-05-19 16:19:00,
2013-05-19 12:24:00,72.7,65.8,30.03,ESE,123,4.0,7.0,79,0.00,,---,0.00,594.00,VWS V14.00,2013-05-19 16:24:00,
2013-05-19 12:29:00,73.3,65.3,30.02,East,94,1.0,7.0,76,0.00,,---,0.00,599.00,VWS V14.00,2013-05-19 16:29:00,
2013-05-19 12:30:00,71.2,63.6,30.03,ESE,108,1.0,8.0,77,0.00,,---,0.00,336.00,VWS V14.00,2013-05-19 16:30:00,
2013-05-19 12:34:00,73.7,64.9,30.02,East,96,4.0,7.0,74,0.00,,---,0.00,571.00,VWS V14.00,2013-05-19 16:34:00,
2013-05-19 12:39:00,73.9,64.7,30.02,ESE,108,2.0,7.0,73,0.00,,---,0.00,571.00,VWS V14.00,2013-05-19 16:39:00,
2013-05-19 12:44:00,74.1,64.5,30.01,WSW,246,0.0,7.0,72,0.00,,---,0.00,571.00,VWS V14.00,2013-05-19 16:44:00,
2013-05-19 12:49:00,74.3,64.7,30.01,East,83,1.0,8.0,72,0.00,,---,0.00,483.00,VWS V14.00,2013-05-19 16:49:00,
2013-05-19 12:54:00,74.1,64.9,30.01,ESE,109,1.0,8.0,73,0.00,,---,0.00,636.00,VWS V14.00,2013-05-19 16:54:00,
2013-05-19 12:59:00,74.3,65.5,30.00,ESE,109,0.0,8.0,74,0.00,,---,0.00,394.00,VWS V14.00,2013-05-19 16:59:00,
2013-05-19 13:00:00,71.9,64.7,30.03,SW,214,4.0,8.0,78,0.00,,---,0.00,341.00,VWS V14.00,2013-05-19 17:00:00,
2013-05-19 13:04:00,74.6,66.2,30.00,East,95,2.0,6.0,75,0.00,,---,0.00,480.00,VWS V14.00,2013-05-19 17:04:00,
2013-05-19 13:09:00,74.7,65.5,30.00,East,85,2.0,6.0,73,0.00,,---,0.00,541.00,VWS V14.00,2013-05-19 17:09:00,
2013-05-19 13:14:00,75.0,65.4,29.99,SSE,163,2.0,7.0,72,0.00,,---,0.00,598.00,VWS V14.00,2013-05-19 17:14:00,
2013-05-19 13:19:00,75.4,66.2,30.00,SW,235,5.0,8.0,73,0.00,,---,0.00,824.00,VWS V14.00,2013-05-19 17:19:00,
2013-05-19 13:24:00,75.7,66.4,29.99,SW,222,1.0,8.0,73,0.00,,---,0.00,877.00,VWS V14.00,2013-05-19 17:24:00,
2013-05-19 13:29:00,76.1,66.4,29.99,East,92,0.0,9.0,72,0.00,,---,0.00,761.00,VWS V14.00,2013-05-19 17:29:00,
2013-05-19 13:30:00,73.5,65.1,30.02,SE,136,0.0,7.0,75,0.00,,---,0.00,647.00,VWS V14.00,2013-05-19 17:30:00,
2013-05-19 13:34:00,76.2,66.5,29.99,SSW,196,1.0,5.0,72,0.00,,---,0.00,543.00,VWS V14.00,2013-05-19 17:34:00,
2013-05-19 13:39:00,76.2,66.5,29.99,East,99,5.0,5.0,72,0.00,,---,0.00,803.00,VWS V14.00,2013-05-19 17:39:00,
2013-05-19 13:44:00,76.3,65.4,29.98,South,169,0.0,9.0,69,0.00,,---,0.00,455.00,VWS V14.00,2013-05-19 17:44:00,
2013-05-19 13:49:00,76.0,65.9,29.98,SE,131,2.0,9.0,71,0.00,,---,0.00,411.00,VWS V14.00,2013-05-19 17:49:00,
2013-05-19 13:54:00,76.3,65.8,29.98,SW,232,1.0,9.0,70,0.00,,---,0.00,397.00,VWS V14.00,2013-05-19 17:54:00,
2013-05-19 13:59:00,76.3,66.6,29.98,East,92,1.0,9.0,72,0.00,,---,0.00,367.00,VWS V14.00,2013-05-19 17:59:00,
2013-05-19 14:00:00,74.4,65.6,30.00,South,186,1.0,8.0,74,0.00,,---,0.00,418.00,VWS V14.00,2013-05-19 18:00:00,
2013-05-19 14:04:00,76.3,65.8,29.98,WNW,290,0.0,4.0,70,0.00,,---,0.00,257.00,VWS V14.00,2013-05-19 18:04:00,
2013-05-19 14:09:00,76.2,66.5,29.98,ENE,78,3.0,5.0,72,0.00,,---,0.00,223.00,VWS V14.00,2013-05-19 18:09:00,
2013-05-19 14:14:00,75.8,65.7,29.97,SSE,154,2.0,7.0,71,0.00,,---,0.00,425.00,VWS V14.00,2013-05-19 18:14:00,
2013-05-19 14:19:00,75.6,66.3,29.97,WSW,254,0.0,7.0,73,0.00,,---,0.00,448.00,VWS V14.00,2013-05-19 18:19:00,
2013-05-19 14:24:00,75.7,66.8,29.97,SSE,150,4.0,7.0,74,0.00,,---,0.00,327.00,VWS V14.00,2013-05-19 18:24:00,
2013-05-19 14:29:00,75.7,65.6,29.97,East,101,1.0,7.0,71,0.00,,---,0.00,445.00,VWS V14.00,2013-05-19 18:29:00,
2013-05-19 14:30:00,76.2,65.7,29.99,ESE,103,4.0,9.0,70,0.00,,---,0.00,744.00,VWS V14.00,2013-05-19 18:30:00,
2013-05-19 14:34:00,76.0,66.3,29.97,SSW,196,1.0,7.0,72,0.00,,---,0.00,657.00,VWS V14.00,2013-05-19 18:34:00,
2013-05-19 14:39:00,76.4,66.3,29.97,SSE,159,1.0,7.0,71,0.00,,---,0.00,510.00,VWS V14.00,2013-05-19 18:39:00,
2013-05-19 14:44:00,76.6,66.1,29.97,SE,140,0.0,7.0,70,0.00,,---,0.00,538.00,VWS V14.00,2013-05-19 18:44:00,
2013-05-19 14:49:00,76.6,66.9,29.96,SSE,165,6.0,7.0,72,0.00,,---,0.00,598.00,VWS V14.00,2013-05-19 18:49:00,
2013-05-19 14:54:00,76.7,66.2,29.97,East,88,3.0,8.0,70,0.00,,---,0.00,628.00,VWS V14.00,2013-05-19 18:54:00,
2013-05-19 14:59:00,76.8,65.9,29.96,SSE,165,2.0,8.0,69,0.00,,---,0.00,628.00,VWS V14.00,2013-05-19 18:59:00,
2013-05-19 15:00:00,76.3,65.4,29.98,East,91,0.0,9.0,69,0.00,,---,0.00,323.00,VWS V14.00,2013-05-19 19:00:00,
2013-05-19 15:04:00,76.7,65.8,29.96,ESE,115,1.0,8.0,69,0.00,,---,0.00,295.00,VWS V14.00,2013-05-19 19:04:00,
2013-05-19 15:09:00,76.5,66.8,29.96,SE,126,2.0,8.0,72,0.00,,---,0.00,371.00,VWS V14.00,2013-05-19 19:09:00,
2013-05-19 15:14:00,76.6,66.5,29.96,SSW,208,3.0,10.0,71,0.00,,---,0.00,554.00,VWS V14.00,2013-05-19 19:14:00,
2013-05-19 15:19:00,76.6,66.1,29.96,ENE,74,1.0,11.0,70,0.00,,---,0.00,666.00,VWS V14.00,2013-05-19 19:19:00,
2013-05-19 15:24:00,76.6,66.1,29.96,SSE,163,2.0,11.0,70,0.00,,---,0.00,555.00,VWS V14.00,2013-05-19 19:24:00,
2013-05-19 15:29:00,76.7,66.2,29.96,ESE,107,1.0,11.0,70,0.00,,---,0.00,550.00,VWS V14.00,2013-05-19 19:29:00,
2013-05-19 15:30:00,75.8,65.7,29.97,SSE,149,5.0,7.0,71,0.00,,---,0.00,445.00,VWS V14.00,2013-05-19 19:30:00,
2013-05-19 15:34:00,76.9,66.4,29.95,SSE,167,0.0,5.0,70,0.00,,---,0.00,765.00,VWS V14.00,2013-05-19 19:34:00,
2013-05-19 15:39:00,77.0,66.1,29.95,South,178,0.0,7.0,69,0.00,,---,0.00,406.00,VWS V14.00,2013-05-19 19:39:00,
2013-05-19 15:44:00,76.6,65.7,29.95,SE,138,2.0,11.0,69,0.00,,---,0.00,464.00,VWS V14.00,2013-05-19 19:44:00,
2013-05-19 15:49:00,76.8,66.7,29.95,ESE,111,2.0,11.0,71,0.00,,---,0.00,833.00,VWS V14.00,2013-05-19 19:49:00,
2013-05-19 15:54:00,77.2,67.1,29.94,ESE,108,4.0,11.0,71,0.00,,---,0.00,798.00,VWS V14.00,2013-05-19 19:54:00,
2013-05-19 15:59:00,77.2,65.8,29.95,West,274,6.0,11.0,68,0.00,,---,0.00,807.00,VWS V14.00,2013-05-19 19:59:00,
2013-05-19 16:00:00,76.8,65.9,29.96,SE,134,6.0,8.0,69,0.00,,---,0.00,795.00,VWS V14.00,2013-05-19 20:00:00,
2013-05-19 16:04:00,77.4,66.9,29.94,SE,136,5.0,7.0,70,0.00,,---,0.00,765.00,VWS V14.00,2013-05-19 20:04:00,
2013-05-19 16:09:00,77.6,66.6,29.94,SSW,194,0.0,9.0,69,0.00,,---,0.00,826.00,VWS V14.00,2013-05-19 20:09:00,
2013-05-19 16:14:00,78.1,67.1,29.94,SSW,192,2.0,9.0,69,0.00,,---,0.00,849.00,VWS V14.00,2013-05-19 20:14:00,
2013-05-19 16:19:00,78.3,66.4,29.94,East,92,0.0,9.0,67,0.00,,---,0.00,455.00,VWS V14.00,2013-05-19 20:19:00,
2013-05-19 16:24:00,78.6,67.2,29.94,SSW,207,7.0,9.0,68,0.00,,---,0.00,884.00,VWS V14.00,2013-05-19 20:24:00,
2013-05-19 16:29:00,79.1,67.6,29.94,SSE,163,0.0,9.0,68,0.00,,---,0.00,856.00,VWS V14.00,2013-05-19 20:29:00,
2013-05-19 16:30:00,76.7,66.6,29.95,East,82,0.0,11.0,71,0.00,,---,0.00,543.00,VWS V14.00,2013-05-19 20:30:00,
2013-05-19 16:34:00,79.4,66.6,29.94,ESE,120,5.0,7.0,65,0.00,,---,0.00,828.00,VWS V14.00,2013-05-19 20:34:00,
2013-05-19 16:39:00,79.0,67.1,29.94,ESE,117,1.0,7.0,67,0.00,,---,0.00,907.00,VWS V14.00,2013-05-19 20:39:00,
2013-05-19 16:44:00,79.4,67.5,29.94,South,190,0.0,7.0,67,0.00,,---,0.00,909.00,VWS V14.00,2013-05-19 20:44:00,
2013-05-19 16:49:00,79.6,66.8,29.94,SSE,148,0.0,7.0,65,0.00,,---,0.00,849.00,VWS V14.00,2013-05-19 20:49:00,
2013-05-19 16:54:00,79.9,67.1,29.93,SSW,192,2.0,7.0,65,0.00,,---,0.00,550.00,VWS V14.00,2013-05-19 20:54:00,
2013-05-19 16:59:00,79.9,67.1,29.93,SE,145,0.0,7.0,65,0.00,,---,0.00,721.00,VWS V14.00,2013-05-19 20:59:00,
2013-05-19 17:00:00,77.3,66.8,29.95,ENE,74,3.0,11.0,70,0.00,,---,0.00,816.00,VWS V14.00,2013-05-19 21:00:00,
2013-05-19 17:04:00,79.7,66.5,29.93,SSW,201,0.0,5.0,64,0.00,,---,0.00,246.00,VWS V14.00,2013-05-19 21:04:00,
2013-05-19 17:09:00,78.9,65.7,29.93,SE,144,0.0,8.0,64,0.00,,---,0.00,687.00,VWS V14.00,2013-05-19 21:09:00,
2013-05-19 17:14:00,78.7,66.4,29.93,ESE,112,0.0,8.0,66,0.00,,---,0.00,566.00,VWS V14.00,2013-05-19 21:14:00,
2013-05-19 17:19:00,78.9,65.7,29.93,SE,133,1.0,8.0,64,0.00,,---,0.00,547.00,VWS V14.00,2013-05-19 21:19:00,
2013-05-19 17:24:00,79.2,66.4,29.93,ESE,105,0.0,8.0,65,0.00,,---,0.00,540.00,VWS V14.00,2013-05-19 21:24:00,
2013-05-19 17:29:00,79.4,67.5,29.93,SE,132,2.0,8.0,67,0.00,,---,0.00,564.00,VWS V14.00,2013-05-19 21:29:00,
2013-05-19 17:30:00,79.3,67.0,29.94,SSW,202,0.0,9.0,66,0.00,,---,0.00,828.00,VWS V14.00,2013-05-19 21:30:00,
2013-05-19 17:34:00,79.7,67.3,29.93,South,172,0.0,2.0,66,0.00,,---,0.00,570.00,VWS V14.00,2013-05-19 21:34:00,
2013-05-19 17:39:00,79.8,66.6,29.93,SW,220,0.0,4.0,64,0.00,,---,0.00,155.00,VWS V14.00,2013-05-19 21:39:00,
2013-05-19 17:44:00,79.7,66.0,29.93,South,173,0.0,5.0,63,0.00,,---,0.00,158.00,VWS V14.00,2013-05-19 21:44:00,
2013-05-19 17:49:00,79.4,66.2,29.93,South,178,0.0,5.0,64,0.00,,---,0.00,185.00,VWS V14.00,2013-05-19 21:49:00,
2013-05-19 17:54:00,79.2,67.3,29.94,SE,135,0.0,5.0,67,0.00,,---,0.00,216.00,VWS V14.00,2013-05-19 21:54:00,
2013-05-19 17:59:00,79.2,66.9,29.93,SSE,152,0.0,5.0,66,0.00,,---,0.00,209.00,VWS V14.00,2013-05-19 21:59:00,
2013-05-19 18:00:00,79.9,67.1,29.93,SSE,160,0.0,7.0,65,0.00,,---,0.00,262.00,VWS V14.00,2013-05-19 22:00:00,
2013-05-19 18:04:00,79.3,65.6,29.93,SSE,154,0.0,0.0,63,0.00,,---,0.00,200.00,VWS V14.00,2013-05-19 22:04:00,
2013-05-19 18:09:00,79.4,66.2,29.93,SSE,153,0.0,0.0,64,0.00,,---,0.00,160.00,VWS V14.00,2013-05-19 22:09:00,
2013-05-19 18:14:00,79.3,66.1,29.93,South,169,0.0,5.0,64,0.00,,---,0.00,174.00,VWS V14.00,2013-05-19 22:14:00,
2013-05-19 18:19:00,79.2,66.4,29.93,SE,129,1.0,5.0,65,0.00,,---,0.00,146.00,VWS V14.00,2013-05-19 22:19:00,
2013-05-19 18:24:00,78.9,66.6,29.92,SE,128,0.0,5.0,66,0.00,,---,0.00,183.00,VWS V14.00,2013-05-19 22:24:00,
2013-05-19 18:29:00,78.5,66.2,29.92,SE,128,0.0,5.0,66,0.00,,---,0.00,132.00,VWS V14.00,2013-05-19 22:29:00,
2013-05-19 18:30:00,79.5,67.2,29.93,SE,124,0.0,8.0,66,0.00,,---,0.00,575.00,VWS V14.00,2013-05-19 22:30:00,
2013-05-19 18:34:00,78.3,66.0,29.92,SE,128,0.0,1.0,66,0.00,,---,0.00,123.00,VWS V14.00,2013-05-19 22:34:00,
2013-05-19 18:39:00,78.2,65.5,29.92,SE,128,1.0,1.0,65,0.00,,---,0.00,151.00,VWS V14.00,2013-05-19 22:39:00,
2013-05-19 18:44:00,78.1,66.7,29.92,SE,128,0.0,1.0,68,0.00,,---,0.00,76.00,VWS V14.00,2013-05-19 22:44:00,
2013-05-19 18:49:00,77.9,66.5,29.92,ESE,111,0.0,4.0,68,0.00,,---,0.00,42.00,VWS V14.00,2013-05-19 22:49:00,
2013-05-19 18:54:00,77.5,65.7,29.92,ESE,123,1.0,6.0,67,0.00,,---,0.00,39.00,VWS V14.00,2013-05-19 22:54:00,
2013-05-19 18:59:00,76.9,66.0,29.92,ESE,105,2.0,6.0,69,0.00,,---,0.00,51.00,VWS V14.00,2013-05-19 22:59:00,
2013-05-19 19:00:00,79.3,66.1,29.93,SSE,154,0.0,5.0,64,0.00,,---,0.00,339.00,VWS V14.00,2013-05-19 23:00:00,
2013-05-19 19:04:00,76.3,66.2,29.92,ESE,117,0.0,2.0,71,0.00,,---,0.00,67.00,VWS V14.00,2013-05-19 23:04:00,
2013-05-19 19:09:00,75.9,66.6,29.92,ESE,116,0.0,5.0,73,0.00,,---,0.00,49.00,VWS V14.00,2013-05-19 23:09:00,
2013-05-19 19:14:00,75.5,67.0,29.91,ESE,116,0.0,5.0,75,0.00,,---,0.00,25.00,VWS V14.00,2013-05-19 23:14:00,
2013-05-19 19:19:00,75.1,66.6,29.92,ESE,116,0.0,5.0,75,0.00,,---,0.00,18.00,VWS V14.00,2013-05-19 23:19:00,
2013-05-19 19:24:00,74.8,67.1,29.92,ESE,116,0.0,5.0,77,0.00,,---,0.00,14.00,VWS V14.00,2013-05-19 23:24:00,
2013-05-19 19:29:00,74.4,66.3,29.92,ESE,117,0.0,5.0,76,0.00,,---,0.00,14.00,VWS V14.00,2013-05-19 23:29:00,
2013-05-19 19:30:00,78.4,66.6,29.92,SE,128,0.0,5.0,67,0.00,,---,0.00,120.00,VWS V14.00,2013-05-19 23:30:00,
2013-05-19 19:34:00,74.1,66.1,29.92,ESE,122,0.0,2.0,76,0.00,,---,0.00,9.00,VWS V14.00,2013-05-19 23:34:00,
2013-05-19 19:39:00,73.9,66.2,29.93,ESE,122,0.0,2.0,77,0.00,,---,0.00,7.00,VWS V14.00,2013-05-19 23:39:00,
2013-05-19 19:44:00,73.8,65.8,29.93,ESE,122,0.0,2.0,76,0.00,,---,0.00,5.00,VWS V14.00,2013-05-19 23:44:00,
2013-05-19 19:49:00,73.7,65.7,29.93,ESE,122,0.0,2.0,76,0.00,,---,0.00,5.00,VWS V14.00,2013-05-19 23:49:00,
2013-05-19 19:54:00,73.5,65.5,29.94,SE,136,0.0,2.0,76,0.00,,---,0.00,0.00,VWS V14.00,2013-05-19 23:54:00,
2013-05-19 19:59:00,73.4,65.4,29.94,SE,136,0.0,2.0,76,0.00,,---,0.00,0.00,VWS V14.00,2013-05-19 23:59:00,
2013-05-19 20:00:00,76.7,66.6,29.92,ESE,117,1.0,6.0,71,0.00,,---,0.00,60.00,VWS V14.00,2013-05-20 00:00:00,
2013-05-19 20:04:00,73.2,65.2,29.94,SE,136,0.0,1.0,76,0.00,,---,0.00,0.00,VWS V14.00,2013-05-20 00:04:00,
2013-05-19 20:09:00,73.1,65.1,29.94,SE,136,0.0,1.0,76,0.00,,---,0.00,0.00,VWS V14.00,2013-05-20 00:09:00,
2013-05-19 20:14:00,72.9,64.9,29.94,SE,136,0.0,2.0,76,0.00,,---,0.00,0.00,VWS V14.00,2013-05-20 00:14:00,
2013-05-19 20:19:00,72.8,65.2,29.94,SE,136,0.0,2.0,77,0.00,,---,0.00,0.00,VWS V14.00,2013-05-20 00:19:00,
2013-05-19 20:24:00,72.7,65.1,29.94,SE,136,0.0,2.0,77,0.00,,---,0.00,0.00,VWS V14.00,2013-05-20 00:24:00,
2013-05-19 20:29:00,72.6,65.0,29.95,SE,136,0.0,2.0,77,0.00,,---,0.00,0.00,VWS V14.00,2013-05-20 00:29:00,
2013-05-19 20:30:00,74.2,66.2,29.92,ESE,117,2.0,5.0,76,0.00,,---,0.00,12.00,VWS V14.00,2013-05-20 00:30:00,
2013-05-19 20:34:00,72.4,65.2,29.95,SE,136,0.0,0.0,78,0.00,,---,0.00,0.00,VWS V14.00,2013-05-20 00:34:00,
2013-05-19 20:39:00,72.2,65.0,29.95,SE,136,0.0,0.0,78,0.00,,---,0.00,0.00,VWS V14.00,2013-05-20 00:39:00,
2013-05-19 20:44:00,72.0,65.1,29.95,SE,136,0.0,0.0,79,0.00,,---,0.00,0.00,VWS V14.00,2013-05-20 00:44:00,
2013-05-19 20:49:00,71.8,64.9,29.95,SE,136,0.0,1.0,79,0.00,,---,0.00,0.00,VWS V14.00,2013-05-20 00:49:00,
2013-05-19 20:54:00,71.5,65.0,29.95,NE,37,0.0,3.0,80,0.00,,---,0.00,0.00,VWS V14.00,2013-05-20 00:54:00,
2013-05-19 21:00:00,71.3,65.2,29.95,NE,39,0.0,3.0,81,0.00,,---,0.00,0.00,VWS V14.00,2013-05-20 01:00:00,
2013-05-19 21:05:00,71.1,65.0,29.96,NE,39,0.0,0.0,81,0.00,,---,0.00,0.00,VWS V14.00,2013-05-20 01:05:00,
2013-05-19 21:09:00,70.9,64.8,29.96,ENE,57,0.0,2.0,81,0.00,,---,0.00,0.00,VWS V14.00,2013-05-20 01:09:00,
2013-05-19 21:15:00,70.8,65.0,29.96,ENE,57,0.0,2.0,82,0.00,,---,0.00,0.00,VWS V14.00,2013-05-20 01:15:00,
2013-05-19 21:19:00,70.6,65.2,29.96,ENE,57,0.0,2.0,83,0.00,,---,0.00,0.00,VWS V14.00,2013-05-20 01:19:00,
2013-05-19 21:25:00,70.3,63.8,29.96,ESE,110,2.0,7.0,80,0.00,,---,0.00,0.00,VWS V14.00,2013-05-20 01:25:00,
2013-05-19 21:30:00,70.3,63.8,29.96,ESE,106,0.0,7.0,80,0.00,,---,0.00,0.00,VWS V14.00,2013-05-20 01:30:00,
2013-05-19 21:35:00,70.2,63.8,29.97,SSE,157,0.0,4.0,80,0.00,,---,0.00,0.00,VWS V14.00,2013-05-20 01:35:00,
2013-05-19 21:40:00,70.2,63.4,29.97,ESE,106,1.0,6.0,79,0.00,,---,0.00,0.00,VWS V14.00,2013-05-20 01:40:00,
2013-05-19 21:45:00,70.2,63.4,29.97,ESE,115,1.0,6.0,79,0.00,,---,0.00,0.00,VWS V14.00,2013-05-20 01:45:00,
2013-05-19 21:50:00,70.1,63.3,29.97,ESE,103,0.0,6.0,79,0.00,,---,0.00,0.00,VWS V14.00,2013-05-20 01:50:00,
2013-05-19 21:54:00,70.1,63.3,29.97,ESE,111,0.0,6.0,79,0.00,,---,0.00,0.00,VWS V14.00,2013-05-20 01:54:00,
2013-05-19 21:59:00,69.9,63.1,29.98,ESE,111,0.0,6.0,79,0.00,,---,0.00,0.00,VWS V14.00,2013-05-20 01:59:00,
2013-05-19 22:04:00,69.8,63.4,29.98,ESE,116,1.0,5.0,80,0.00,,---,0.00,0.00,VWS V14.00,2013-05-20 02:04:00,
2013-05-19 22:09:00,69.7,63.3,29.98,ESE,116,0.0,5.0,80,0.00,,---,0.00,0.00,VWS V14.00,2013-05-20 02:09:00,
2013-05-19 22:14:00,69.6,63.5,29.98,ESE,117,0.0,5.0,81,0.00,,---,0.00,0.00,VWS V14.00,2013-05-20 02:14:00,
2013-05-19 22:19:00,69.5,63.4,29.99,ESE,117,0.0,5.0,81,0.00,,---,0.00,0.00,VWS V14.00,2013-05-20 02:19:00,
2013-05-19 22:24:00,69.3,63.6,29.99,ESE,117,0.0,5.0,82,0.00,,---,0.00,0.00,VWS V14.00,2013-05-20 02:24:00,
2013-05-19 22:29:00,69.2,63.5,29.99,ESE,117,0.0,5.0,82,0.00,,---,0.00,0.00,VWS V14.00,2013-05-20 02:29:00,
2013-05-19 22:30:00,70.3,63.8,29.97,ESE,106,0.0,7.0,80,0.00,,---,0.00,0.00,VWS V14.00,2013-05-20 02:30:00,
2013-05-19 22:34:00,69.0,63.3,29.99,East,90,0.0,2.0,82,0.00,,---,0.00,0.00,VWS V14.00,2013-05-20 02:34:00,
2013-05-19 22:40:00,68.8,63.1,29.99,East,90,0.0,2.0,82,0.00,,---,0.00,0.00,VWS V14.00,2013-05-20 02:40:00,
2013-05-19 22:44:00,68.6,63.2,29.99,East,88,0.0,2.0,83,0.00,,---,0.00,0.00,VWS V14.00,2013-05-20 02:44:00,
2013-05-19 22:50:00,68.5,63.1,29.99,East,88,0.0,2.0,83,0.00,,---,0.00,0.00,VWS V14.00,2013-05-20 02:50:00,
2013-05-19 22:55:00,68.3,62.9,29.99,East,88,0.0,2.0,83,0.00,,---,0.00,0.00,VWS V14.00,2013-05-20 02:55:00,
2013-05-19 23:00:00,68.2,63.2,29.99,East,88,0.0,2.0,84,0.00,,---,0.00,0.00,VWS V14.00,2013-05-20 03:00:00,
2013-05-19 23:05:00,68.0,63.3,29.99,East,88,0.0,0.0,85,0.00,,---,0.00,0.00,VWS V14.00,2013-05-20 03:05:00,
2013-05-19 23:10:00,67.8,63.1,29.99,East,88,0.0,0.0,85,0.00,,---,0.00,0.00,VWS V14.00,2013-05-20 03:10:00,
2013-05-19 23:15:00,67.6,63.3,29.99,East,88,0.0,0.0,86,0.00,,---,0.00,0.00,VWS V14.00,2013-05-20 03:15:00,
2013-05-19 23:20:00,67.4,63.1,29.99,East,88,0.0,0.0,86,0.00,,---,0.00,0.00,VWS V14.00,2013-05-20 03:20:00,
2013-05-19 23:25:00,67.2,62.9,29.99,East,88,0.0,0.0,86,0.00,,---,0.00,0.00,VWS V14.00,2013-05-20 03:25:00,
2013-05-19 23:30:00,67.1,62.8,29.99,East,88,0.0,0.0,86,0.00,,---,0.00,0.00,VWS V14.00,2013-05-20 03:30:00,
2013-05-19 23:35:00,67.1,63.1,29.99,East,88,0.0,0.0,87,0.00,,---,0.00,0.00,VWS V14.00,2013-05-20 03:35:00,
2013-05-19 23:40:00,67.0,63.3,29.99,East,88,0.0,0.0,88,0.00,,---,0.00,0.00,VWS V14.00,2013-05-20 03:40:00,
2013-05-19 23:45:00,66.9,63.6,29.99,East,88,0.0,0.0,89,0.00,,---,0.00,0.00,VWS V14.00,2013-05-20 03:45:00,
2013-05-19 23:50:00,66.8,63.5,29.99,East,88,0.0,0.0,89,0.00,,---,0.00,0.00,VWS V14.00,2013-05-20 03:50:00,
2013-05-19 23:55:00,66.6,63.3,29.98,East,88,0.0,0.0,89,0.00,,---,0.00,0.00,VWS V14.00,2013-05-20 03:55:00,